createdAt,value
2019-03-12T00:02:25.829Z,102447.75
2019-03-12T00:04:53.116Z,102454.01
2019-03-12T00:07:20.306Z,102434.54
2019-03-12T00:09:47.599Z,102444.96
2019-03-12T00:12:14.708Z,102438.36
2019-03-12T00:14:42.077Z,102438.51
2019-03-12T00:17:09.481Z,102433.31
2019-03-12T00:19:36.597Z,102431.50
2019-03-12T00:22:03.631Z,102423.97
2019-03-12T00:24:30.817Z,102431.25
2019-03-12T00:26:57.875Z,102434.66
2019-03-12T00:29:37.343Z,102422.82
2019-03-12T00:32:04.756Z,102439.31
2019-03-12T00:34:31.886Z,102443.48
2019-03-12T00:36:59.064Z,102442.16
2019-03-12T00:39:26.108Z,102441.15
2019-03-12T00:41:53.140Z,102437.50
2019-03-12T00:44:22.176Z,102433.84
2019-03-12T00:46:49.222Z,102425.27
2019-03-12T00:49:18.077Z,102429.14
2019-03-12T00:51:45.162Z,102423.41
2019-03-12T00:54:12.259Z,102424.17
2019-03-12T00:56:39.375Z,102425.47
2019-03-12T00:59:06.469Z,102425.17
2019-03-12T01:01:33.699Z,102425.41
2019-03-12T01:04:00.875Z,102428.38
2019-03-12T01:06:27.952Z,102419.01
2019-03-12T01:08:55.149Z,102422.76
2019-03-12T01:11:22.220Z,102423.52
2019-03-12T01:13:49.396Z,102423.60
2019-03-12T01:16:16.614Z,102409.66
2019-03-12T01:18:43.898Z,102404.82
2019-03-12T01:21:11.022Z,102400.64
2019-03-12T01:23:38.072Z,102393.36
2019-03-12T01:26:05.122Z,102390.99
2019-03-12T01:28:32.211Z,102390.44
2019-03-12T01:30:59.260Z,102380.55
2019-03-12T01:33:26.459Z,102379.37
2019-03-12T01:36:16.363Z,102372.98
2019-03-12T01:38:43.485Z,102372.74
2019-03-12T01:41:10.518Z,102364.59
2019-03-12T01:43:37.576Z,102364.82
2019-03-12T01:46:04.752Z,102363.02
2019-03-12T01:48:31.787Z,102369.79
2019-03-12T01:50:58.894Z,102366.16
2019-03-12T01:53:25.945Z,102368.25
2019-03-12T01:56:29.718Z,102354.46
2019-03-12T01:58:56.774Z,102350.56
2019-03-12T02:01:23.813Z,102343.03
2019-03-12T02:03:50.886Z,102336.41
2019-03-12T02:06:17.924Z,102339.41
2019-03-12T02:08:44.965Z,102335.91
2019-03-12T02:11:12.021Z,102333.18
2019-03-12T02:13:39.106Z,102324.87
2019-03-12T02:16:06.147Z,102329.80
2019-03-12T02:18:33.255Z,102316.67
2019-03-12T02:21:00.390Z,102321.75
2019-03-12T02:23:28.926Z,102321.24
2019-03-12T02:25:56.413Z,102312.77
2019-03-12T02:28:23.438Z,102312.09
2019-03-12T02:30:50.619Z,102308.70
2019-03-12T02:33:17.684Z,102306.66
2019-03-12T02:35:44.795Z,102296.94
2019-03-12T02:38:11.865Z,102290.31
2019-03-12T02:40:38.928Z,102284.20
2019-03-12T02:43:06.012Z,102274.71
2019-03-12T02:45:33.047Z,102280.82
2019-03-12T02:48:01.288Z,102284.56
2019-03-12T02:50:28.372Z,102278.45
2019-03-12T02:52:55.414Z,102274.90
2019-03-12T02:55:22.451Z,102271.23
2019-03-12T02:57:49.532Z,102266.03
2019-03-12T03:00:19.864Z,102263.66
2019-03-12T03:02:46.901Z,102256.87
2019-03-12T03:05:14.171Z,102249.19
2019-03-12T03:07:50.055Z,102253.60
2019-03-12T03:10:17.365Z,102241.67
2019-03-12T03:12:44.527Z,102245.17
2019-03-12T03:15:18.380Z,102243.87
2019-03-12T03:17:45.439Z,102241.55
2019-03-12T03:20:12.574Z,102234.03
2019-03-12T03:22:39.674Z,102228.20
2019-03-12T03:25:06.918Z,102225.20
2019-03-12T03:27:34.535Z,102225.72
2019-03-12T03:30:03.581Z,102219.72
2019-03-12T03:32:30.894Z,102212.20
2019-03-12T03:34:57.985Z,102210.23
2019-03-12T03:37:25.061Z,102210.39
2019-03-12T03:39:52.110Z,102206.88
2019-03-12T03:42:19.254Z,102211.92
2019-03-12T03:44:46.322Z,102214.24
2019-03-12T03:47:13.352Z,102207.45
2019-03-12T03:49:40.398Z,102197.16
2019-03-12T03:52:07.494Z,102202.87
2019-03-12T03:54:34.665Z,102201.80
2019-03-12T03:57:01.935Z,102197.62
2019-03-12T03:59:29.000Z,102189.48
2019-03-12T04:01:56.039Z,102184.05
2019-03-12T04:04:23.080Z,102178.60
2019-03-12T04:06:50.352Z,102173.45
2019-03-12T04:09:17.365Z,102170.16
2019-03-12T04:11:44.408Z,102158.20
2019-03-12T04:14:11.490Z,102156.33
2019-03-12T04:17:21.378Z,102154.09
2019-03-12T04:19:48.459Z,102150.80
2019-03-12T04:22:15.495Z,102146.20
2019-03-12T04:24:42.557Z,102137.99
2019-03-12T04:27:09.634Z,102132.09
2019-03-12T04:29:37.621Z,102127.00
2019-03-12T04:32:04.748Z,102125.70
2019-03-12T04:34:37.400Z,102129.82
2019-03-12T04:37:04.558Z,102121.72
2019-03-12T04:39:31.632Z,102112.23
2019-03-12T04:41:58.680Z,102101.02
2019-03-12T04:44:30.373Z,102102.53
2019-03-12T04:46:57.462Z,102100.55
2019-03-12T04:49:24.503Z,102094.42
2019-03-12T04:51:51.560Z,102093.84
2019-03-12T04:54:18.630Z,102089.64
2019-03-12T04:56:45.695Z,102094.16
2019-03-12T04:59:12.751Z,102085.55
2019-03-12T05:01:39.832Z,102088.36
2019-03-12T05:04:06.912Z,102079.34
2019-03-12T05:06:33.921Z,102067.63
2019-03-12T05:09:01.021Z,102078.36
2019-03-12T05:11:28.379Z,102070.44
2019-03-12T05:14:24.153Z,102064.72
2019-03-12T05:16:52.994Z,102061.61
2019-03-12T05:19:20.551Z,102061.61
2019-03-12T05:21:47.612Z,102051.19
2019-03-12T05:24:14.677Z,102053.40
2019-03-12T05:26:41.724Z,102046.98
2019-03-12T05:29:13.430Z,102040.88
2019-03-12T05:31:44.739Z,102033.45
2019-03-12T05:34:13.572Z,102032.95
2019-03-12T05:36:48.009Z,102032.36
2019-03-12T05:39:15.089Z,102034.88
2019-03-12T05:41:42.169Z,102032.38
2019-03-12T05:44:09.241Z,102024.16
2019-03-12T05:46:36.282Z,102029.58
2019-03-12T05:49:03.331Z,102023.56
2019-03-12T05:51:30.425Z,102021.46
2019-03-12T05:53:57.499Z,102018.16
2019-03-12T05:56:24.545Z,102018.77
2019-03-12T05:58:51.644Z,102013.25
2019-03-12T06:01:18.696Z,102006.13
2019-03-12T06:03:45.740Z,102007.14
2019-03-12T06:06:12.919Z,101999.82
2019-03-12T06:08:39.963Z,101995.11
2019-03-12T06:11:07.012Z,101987.89
2019-03-12T06:13:34.198Z,101984.08
2019-03-12T06:16:01.563Z,101981.57
2019-03-12T06:18:28.612Z,101979.16
2019-03-12T06:20:55.692Z,101973.84
2019-03-12T06:23:22.796Z,101962.71
2019-03-12T06:25:50.230Z,101968.03
2019-03-12T06:28:17.276Z,101976.64
2019-03-12T06:31:04.220Z,101967.31
2019-03-12T06:33:47.582Z,101974.12
2019-03-12T06:36:37.097Z,101978.83
2019-03-12T06:39:14.356Z,101979.41
2019-03-12T06:42:10.054Z,101978.34
2019-03-12T06:44:44.292Z,101968.98
2019-03-12T06:47:40.308Z,101963.27
2019-03-12T06:50:17.316Z,101954.74
2019-03-12T06:53:04.030Z,101935.98
2019-03-12T06:55:48.633Z,101927.26
2019-03-12T06:58:54.105Z,101920.14
2019-03-12T07:02:24.620Z,101908.59
2019-03-12T07:05:10.064Z,101905.38
2019-03-12T07:07:55.605Z,101894.32
2019-03-12T07:10:41.269Z,101885.91
2019-03-12T07:13:34.197Z,101887.78
2019-03-12T07:16:23.621Z,101883.34
2019-03-12T07:19:13.049Z,101883.00
2019-03-12T07:22:02.610Z,101878.95
2019-03-12T07:24:40.436Z,101870.19
2019-03-12T07:27:29.888Z,101863.72
2019-03-12T07:30:15.251Z,101855.66
2019-03-12T07:33:00.893Z,101848.59
2019-03-12T07:35:46.473Z,101840.31
2019-03-12T07:38:42.421Z,101836.08
2019-03-12T07:41:32.959Z,101821.20
2019-03-12T07:44:19.635Z,101816.33
2019-03-12T07:46:52.189Z,101801.19
2019-03-12T07:49:38.920Z,101800.98
2019-03-12T07:52:17.809Z,101794.39
2019-03-12T07:55:13.171Z,101786.66
2019-03-12T07:57:53.571Z,101777.61
2019-03-12T08:00:32.314Z,101777.25
2019-03-12T08:03:16.852Z,101771.86
2019-03-12T08:06:02.427Z,101759.13
2019-03-12T08:08:48.114Z,101757.33
2019-03-12T08:11:22.719Z,101757.98
2019-03-12T08:14:09.383Z,101755.03
2019-03-12T08:17:08.263Z,101748.25
2019-03-12T08:19:53.791Z,101735.17
2019-03-12T08:22:39.269Z,101729.20
2019-03-12T08:25:22.074Z,101722.41
2019-03-12T08:27:57.951Z,101712.82
2019-03-12T08:30:45.431Z,101697.02
2019-03-12T08:33:50.630Z,101690.94
2019-03-12T08:36:27.567Z,101692.45
2019-03-12T08:39:14.244Z,101669.86
2019-03-12T08:42:18.995Z,101685.55
2019-03-12T08:45:17.946Z,101668.48
2019-03-12T08:48:12.932Z,101659.55
2019-03-12T08:51:05.568Z,101659.28
2019-03-12T08:53:55.095Z,101654.67
2019-03-12T08:56:39.035Z,101628.77
2019-03-12T08:59:18.966Z,101626.16
2019-03-12T09:02:04.135Z,101612.06
2019-03-12T09:05:07.059Z,101609.94
2019-03-12T09:07:44.134Z,101604.42
2019-03-12T09:10:32.325Z,101599.80
2019-03-12T09:13:12.014Z,101595.55
2019-03-12T09:15:58.698Z,101576.37
2019-03-12T09:19:01.302Z,101583.08
2019-03-12T09:21:50.956Z,101572.98
2019-03-12T09:24:27.966Z,101566.50
2019-03-12T09:27:02.213Z,101546.92
2019-03-12T09:29:51.432Z,101550.72
2019-03-12T09:32:31.765Z,101554.03
2019-03-12T09:35:12.833Z,101541.20
2019-03-12T09:37:53.571Z,101522.92
2019-03-12T09:40:34.149Z,101517.66
2019-03-12T09:43:31.602Z,101514.51
2019-03-12T09:46:36.522Z,101503.39
2019-03-12T09:49:27.650Z,101495.84
2019-03-12T09:52:04.690Z,101483.24
2019-03-12T09:54:43.560Z,101467.63
2019-03-12T09:57:30.346Z,101466.22
2019-03-12T10:00:21.489Z,101457.88
2019-03-12T10:03:08.572Z,101459.30
2019-03-12T10:05:55.222Z,101450.50
2019-03-12T10:08:47.951Z,101428.68
2019-03-12T10:11:40.366Z,101425.28
2019-03-12T10:14:29.814Z,101403.06
2019-03-12T10:17:22.212Z,101397.27
2019-03-12T10:19:56.321Z,101393.23
2019-03-12T10:22:40.635Z,101361.80
2019-03-12T10:25:27.556Z,101360.23
2019-03-12T10:28:05.780Z,101347.20
2019-03-12T10:30:50.964Z,101361.28
2019-03-12T10:33:35.297Z,101348.36
2019-03-12T10:36:30.919Z,101343.42
2019-03-12T10:39:56.442Z,101334.33
2019-03-12T10:42:35.877Z,101328.50
2019-03-12T10:45:21.330Z,101334.33
2019-03-12T10:47:48.445Z,101329.55
2019-03-12T10:50:15.519Z,101303.00
2019-03-12T10:52:42.583Z,101297.00
2019-03-12T10:55:13.367Z,101294.75
2019-03-12T10:57:43.048Z,101291.84
2019-03-12T11:00:11.208Z,101283.81
2019-03-12T11:02:40.670Z,101277.29
2019-03-12T11:05:07.676Z,101272.78
2019-03-12T11:07:34.743Z,101268.09
2019-03-12T11:10:01.877Z,101265.83
2019-03-12T11:12:29.055Z,101241.53
2019-03-12T11:14:56.239Z,101255.09
2019-03-12T11:17:23.315Z,101251.83
2019-03-12T11:19:50.498Z,101249.77
2019-03-12T11:22:17.666Z,101233.84
2019-03-12T11:24:44.902Z,101230.14
2019-03-12T11:27:12.003Z,101225.00
2019-03-12T11:29:39.052Z,101226.27
2019-03-12T11:32:06.288Z,101214.17
2019-03-12T11:34:33.415Z,101203.78
2019-03-12T11:37:00.651Z,101209.09
2019-03-12T11:39:27.900Z,101183.91
2019-03-12T11:41:54.978Z,101184.94
2019-03-12T11:44:22.201Z,101168.17
2019-03-12T11:46:49.366Z,101169.49
2019-03-12T11:49:16.668Z,101160.49
2019-03-12T11:51:43.700Z,101155.78
2019-03-12T11:54:10.769Z,101155.13
2019-03-12T11:56:38.091Z,101147.66
2019-03-12T11:59:05.173Z,101140.69
2019-03-12T12:01:33.349Z,101145.87
2019-03-12T12:04:00.462Z,101147.86
2019-03-12T12:06:27.521Z,101125.32
2019-03-12T12:08:54.672Z,101127.02
2019-03-12T12:11:21.765Z,101102.94
2019-03-12T12:13:48.838Z,101112.50
2019-03-12T12:16:16.158Z,101098.14
2019-03-12T12:18:43.434Z,101086.60
2019-03-12T12:21:17.706Z,101074.09
2019-03-12T12:23:44.801Z,101085.63
2019-03-12T12:26:11.876Z,101066.61
2019-03-12T12:28:57.406Z,101062.49
2019-03-12T12:31:24.508Z,101033.66
2019-03-12T12:33:51.568Z,101027.74
2019-03-12T12:36:18.674Z,101021.95
2019-03-12T12:38:45.784Z,101022.45
2019-03-12T12:41:12.974Z,101017.70
2019-03-12T12:43:40.067Z,101010.73
2019-03-12T12:46:07.163Z,101003.05
2019-03-12T12:48:41.782Z,100995.78
2019-03-12T12:51:08.823Z,100975.59
2019-03-12T12:53:41.932Z,100957.75
2019-03-12T12:56:08.985Z,100942.63
2019-03-12T12:58:36.048Z,100948.47
2019-03-12T13:01:03.198Z,100932.79
2019-03-12T13:03:30.245Z,100931.05
2019-03-12T13:05:57.325Z,100928.84
2019-03-12T13:08:24.428Z,100920.83
2019-03-12T13:10:51.482Z,100912.87
2019-03-12T13:13:18.529Z,100900.62
2019-03-12T13:15:45.609Z,100893.90
2019-03-12T13:18:12.653Z,100888.37
2019-03-12T13:20:39.829Z,100876.59
2019-03-12T13:23:06.930Z,100880.47
2019-03-12T13:25:33.974Z,100867.27
2019-03-12T13:28:01.053Z,100857.09
2019-03-12T13:30:28.123Z,100846.27
2019-03-12T13:32:55.188Z,100824.25
2019-03-12T13:35:22.334Z,100821.02
2019-03-12T13:37:49.451Z,100805.75
2019-03-12T13:40:17.492Z,100812.83
2019-03-12T13:42:44.776Z,100801.59
2019-03-12T13:45:17.475Z,100809.89
2019-03-12T13:47:46.317Z,100804.83
2019-03-12T13:50:13.890Z,100788.02
2019-03-12T13:52:40.987Z,100778.73
2019-03-12T13:55:08.968Z,100781.03
2019-03-12T13:57:36.132Z,100772.52
2019-03-12T14:00:06.184Z,100761.59
2019-03-12T14:02:33.469Z,100764.04
2019-03-12T14:05:00.532Z,100748.15
2019-03-12T14:07:27.613Z,100747.56
2019-03-12T14:09:54.773Z,100744.53
2019-03-12T14:12:21.925Z,100729.97
2019-03-12T14:14:49.102Z,100716.22
2019-03-12T14:17:16.144Z,100703.59
2019-03-12T14:19:43.204Z,100714.05
2019-03-12T14:22:10.290Z,100700.95
2019-03-12T14:24:37.444Z,100685.89
2019-03-12T14:27:04.621Z,100698.26
2019-03-12T14:29:33.821Z,100682.96
2019-03-12T14:32:01.011Z,100666.28
2019-03-12T14:34:28.158Z,100656.34
2019-03-12T14:36:55.333Z,100648.32
2019-03-12T14:39:22.541Z,100640.00
2019-03-12T14:41:49.767Z,100640.91
2019-03-12T14:44:17.129Z,100631.28
2019-03-12T14:46:44.370Z,100625.61
2019-03-12T14:49:11.511Z,100609.82
2019-03-12T14:52:03.260Z,100608.02
2019-03-12T14:54:30.323Z,100592.28
2019-03-12T14:56:57.555Z,100589.63
2019-03-12T14:59:24.824Z,100581.67
2019-03-12T15:01:51.979Z,100571.06
2019-03-12T15:04:19.048Z,100560.34
2019-03-12T15:06:46.272Z,100550.19
2019-03-12T15:09:14.856Z,100538.37
2019-03-12T15:11:42.181Z,100542.22
2019-03-12T15:14:09.321Z,100537.41
2019-03-12T15:16:36.391Z,100529.98
2019-03-12T15:19:03.735Z,100524.20
2019-03-12T15:21:30.998Z,100518.48
2019-03-12T15:23:58.321Z,100500.93
2019-03-12T15:26:25.390Z,100493.04
2019-03-12T15:28:52.518Z,100476.34
2019-03-12T15:31:19.822Z,100475.45
2019-03-12T15:33:47.394Z,100467.91
2019-03-12T15:36:14.519Z,100459.08
2019-03-12T15:38:41.735Z,100446.41
2019-03-12T15:41:08.772Z,100435.55
2019-03-12T15:43:35.811Z,100416.68
2019-03-12T15:46:03.325Z,100401.33
2019-03-12T15:48:30.585Z,100406.42
2019-03-12T15:50:57.767Z,100388.91
2019-03-12T15:53:24.883Z,100379.30
2019-03-12T15:55:51.954Z,100371.77
2019-03-12T15:58:19.036Z,100362.48
2019-03-12T16:00:46.116Z,100362.83
2019-03-12T16:03:13.201Z,100359.83
2019-03-12T16:05:40.245Z,100361.09
2019-03-12T16:08:07.316Z,100354.11
2019-03-12T16:10:34.511Z,100347.05
2019-03-12T16:13:01.597Z,100326.45
2019-03-12T16:15:28.669Z,100335.78
2019-03-12T16:17:55.793Z,100323.02
2019-03-12T16:20:22.878Z,100321.14
2019-03-12T16:22:50.036Z,100316.69
2019-03-12T16:25:17.451Z,100311.45
2019-03-12T16:27:44.791Z,100299.62
2019-03-12T16:30:12.042Z,100293.14
2019-03-12T16:32:39.138Z,100283.94
2019-03-12T16:35:06.586Z,100284.84
2019-03-12T16:37:33.981Z,100290.97
2019-03-12T16:40:01.214Z,100287.04
2019-03-12T16:42:34.966Z,100283.08
2019-03-12T16:44:57.303Z,100284.41
2019-03-12T16:47:24.639Z,100264.31
2019-03-12T16:49:51.988Z,100266.97
2019-03-12T16:52:19.110Z,100245.86
2019-03-12T16:54:46.144Z,100255.91
2019-03-12T16:57:13.205Z,100241.48
2019-03-12T16:59:40.329Z,100222.70
2019-03-12T17:02:07.444Z,100224.01
2019-03-12T17:04:35.612Z,100212.52
2019-03-12T17:07:02.728Z,100204.16
2019-03-12T17:10:12.786Z,100185.66
2019-03-12T17:12:39.885Z,100175.16
2019-03-12T17:15:09.145Z,100167.17
2019-03-12T17:17:36.302Z,100162.36
2019-03-12T17:20:03.966Z,100156.66
2019-03-12T17:22:31.055Z,100147.56
2019-03-12T17:24:58.141Z,100129.28
2019-03-12T17:27:25.418Z,100128.45
2019-03-12T17:29:52.475Z,100127.92
2019-03-12T17:32:19.564Z,100101.07
2019-03-12T17:34:46.672Z,100086.19
2019-03-12T17:37:13.867Z,100097.11
2019-03-12T17:39:41.289Z,100079.51
2019-03-12T17:42:08.403Z,100065.96
2019-03-12T17:44:35.773Z,100070.31
2019-03-12T17:47:02.971Z,100048.47
2019-03-12T17:49:30.079Z,100055.02
2019-03-12T17:51:57.265Z,100042.30
2019-03-12T17:54:24.486Z,100022.59
2019-03-12T17:56:51.562Z,100010.39
2019-03-12T17:59:19.122Z,100015.64
2019-03-12T18:01:46.205Z,100003.85
2019-03-12T18:04:13.522Z,100007.31
2019-03-12T18:06:40.778Z,99998.47
2019-03-12T18:09:08.971Z,99999.80
2019-03-12T18:11:36.205Z,99994.06
2019-03-12T18:14:03.274Z,99983.09
2019-03-12T18:16:41.089Z,99982.23
2019-03-12T18:19:01.241Z,99975.27
2019-03-12T18:21:28.398Z,99976.09
2019-03-12T18:23:55.593Z,99963.39
2019-03-12T18:26:23.432Z,99955.97
2019-03-12T18:28:51.721Z,99951.55
2019-03-12T18:31:19.343Z,99949.27
2019-03-12T18:33:46.653Z,99947.52
2019-03-12T18:36:13.809Z,99932.20
2019-03-12T18:38:41.280Z,99937.42
2019-03-12T18:41:08.550Z,99936.98
2019-03-12T18:43:35.644Z,99941.78
2019-03-12T18:46:02.816Z,99950.09
2019-03-12T18:48:30.069Z,99949.73
2019-03-12T18:50:57.566Z,99945.69
2019-03-12T18:53:24.915Z,99944.19
2019-03-12T18:56:10.513Z,99947.48
2019-03-12T18:58:37.596Z,99951.34
2019-03-12T19:01:09.095Z,99943.91
2019-03-12T19:03:36.199Z,99945.23
2019-03-12T19:06:03.349Z,99950.44
2019-03-12T19:08:30.521Z,99944.20
2019-03-12T19:10:57.634Z,99949.19
2019-03-12T19:13:26.621Z,99943.97
2019-03-12T19:15:56.356Z,99947.89
2019-03-12T19:18:23.440Z,99942.60
2019-03-12T19:20:50.707Z,99944.28
2019-03-12T19:23:17.964Z,99942.52
2019-03-12T19:25:45.285Z,99940.28
2019-03-12T19:28:13.684Z,99938.84
2019-03-12T19:30:40.884Z,99920.88
2019-03-12T19:33:10.193Z,99930.30
2019-03-12T19:35:37.404Z,99937.12
2019-03-12T19:38:04.590Z,99911.68
2019-03-12T19:40:32.063Z,99894.06
2019-03-12T19:42:59.206Z,99889.56
2019-03-12T19:45:26.280Z,99892.88
2019-03-12T19:47:53.497Z,99887.26
2019-03-12T19:50:21.127Z,99887.73
2019-03-12T19:52:48.208Z,99898.30
2019-03-12T19:55:19.681Z,99899.60
2019-03-12T19:57:46.798Z,99888.73
2019-03-12T20:00:15.781Z,99872.58
2019-03-12T20:02:45.657Z,99891.05
2019-03-12T20:05:12.896Z,99885.06
2019-03-12T20:07:40.465Z,99884.42
2019-03-12T20:11:07.518Z,99883.11
2019-03-12T20:14:27.950Z,99881.84
2019-03-12T20:17:36.005Z,99896.31
2019-03-12T20:20:40.197Z,99894.67
2019-03-12T20:24:02.752Z,99899.12
2019-03-12T20:27:16.894Z,99896.77
2019-03-12T20:30:24.507Z,99908.77
2019-03-12T20:33:30.220Z,100008.20
2019-03-12T20:36:34.872Z,100054.86
2019-03-12T20:40:04.907Z,100074.49
2019-03-12T20:43:09.579Z,100106.00
2019-03-12T20:46:52.446Z,100109.70
2019-03-12T20:49:56.189Z,100135.02
2019-03-12T20:52:59.769Z,100147.16
2019-03-12T20:56:04.557Z,100165.09
2019-03-12T20:59:08.590Z,100174.77
2019-03-12T21:02:15.951Z,100182.61
2019-03-12T21:05:24.978Z,100196.49
2019-03-12T21:08:41.899Z,100207.45
2019-03-12T21:11:47.529Z,100217.78
2019-03-12T21:14:58.767Z,100227.69
2019-03-12T21:18:25.680Z,100230.50
2019-03-12T21:21:33.802Z,100244.74
2019-03-12T21:24:44.965Z,100245.47
2019-03-12T21:27:58.644Z,100255.84
2019-03-12T21:30:26.384Z,100273.33
2019-03-12T21:32:53.583Z,100267.59
2019-03-12T21:35:20.688Z,100276.77
2019-03-12T21:37:50.087Z,100277.55
2019-03-12T21:40:17.320Z,100285.78
2019-03-12T21:42:44.413Z,100284.95
2019-03-12T21:45:12.247Z,100293.67
2019-03-12T21:47:39.320Z,100300.55
2019-03-12T21:50:07.188Z,100292.00
2019-03-12T21:52:36.131Z,100301.55
2019-03-12T21:55:03.996Z,100292.56
2019-03-12T21:57:31.094Z,100304.56
2019-03-12T21:59:58.202Z,100313.05
2019-03-12T22:02:25.321Z,100315.66
2019-03-12T22:04:52.376Z,100310.39
2019-03-12T22:07:19.478Z,100322.13
2019-03-12T22:09:46.626Z,100331.00
2019-03-12T22:12:13.692Z,100335.59
2019-03-12T22:14:40.796Z,100336.89
2019-03-12T22:17:07.901Z,100337.78
2019-03-12T22:19:35.154Z,100338.78
2019-03-12T22:22:10.324Z,100336.64
2019-03-12T22:24:37.377Z,100340.55
2019-03-12T22:27:04.646Z,100338.89
2019-03-12T22:29:31.799Z,100347.77
2019-03-12T22:31:59.142Z,100351.09
2019-03-12T22:34:26.205Z,100350.27
2019-03-12T22:36:53.297Z,100342.33
2019-03-12T22:40:15.141Z,100348.63
2019-03-12T22:42:42.394Z,100348.63
2019-03-12T22:45:09.488Z,100351.03
2019-03-12T22:48:13.289Z,100367.71
2019-03-12T22:50:40.371Z,100371.73
2019-03-12T22:53:07.556Z,100372.98
2019-03-12T22:55:35.783Z,100372.04
2019-03-12T22:58:11.213Z,100385.19
2019-03-12T23:00:39.382Z,100382.05
2019-03-12T23:03:06.440Z,100390.33
2019-03-12T23:05:33.488Z,100392.11
2019-03-12T23:08:00.742Z,100394.11
2019-03-12T23:10:28.552Z,100399.61
2019-03-12T23:12:56.021Z,100404.36
2019-03-12T23:15:23.114Z,100406.55
2019-03-12T23:17:50.248Z,100408.97
2019-03-12T23:20:18.763Z,100411.21
2019-03-12T23:22:45.879Z,100422.67
2019-03-12T23:25:12.939Z,100430.73
2019-03-12T23:27:39.986Z,100429.31
2019-03-12T23:30:09.555Z,100438.33
2019-03-12T23:32:36.695Z,100444.61
2019-03-12T23:35:04.620Z,100448.88
2019-03-12T23:37:31.722Z,100445.08
2019-03-12T23:39:58.776Z,100446.13
2019-03-12T23:42:25.975Z,100456.41
2019-03-12T23:44:54.467Z,100453.49
2019-03-12T23:47:21.518Z,100453.84
2019-03-12T23:49:49.205Z,100461.80
2019-03-12T23:52:16.314Z,100458.82
2019-03-12T23:54:43.374Z,100467.84
2019-03-12T23:57:10.532Z,100463.76
2019-03-12T23:59:38.106Z,100466.12
